Time;durP1;ratioP1;P1;durP2;ratioP2;P2;SDS_P1;SDS_P2;PMS_P1;PMS_P2;Temp;Humidity;BMP_temperature;BMP_pressure;BME280_temperature;BME280_humidity;BME280_pressure;Samples;Min_cycle;Max_cycle;Signal;HPM_P1;HPM_P2
2023/05/25 00:00:10;;;;;;;0.57;0.57;;;;;;;;;;5077766;28;20630;-83
2023/05/25 00:02:37;;;;;;;0.60;0.60;;;;;;;;;;5078355;28;20179;-83
2023/05/25 00:05:03;;;;;;;0.60;0.60;;;;;;;;;;5078648;28;20186;-82
2023/05/25 00:07:29;;;;;;;0.67;0.67;;;;;;;;;;5078205;28;20185;-82
2023/05/25 00:09:55;;;;;;;0.60;0.60;;;;;;;;;;5077467;28;20661;-82
2023/05/25 00:12:21;;;;;;;0.50;0.50;;;;;;;;;;5077861;28;20174;-82
2023/05/25 00:14:47;;;;;;;0.60;0.60;;;;;;;;;;5078412;28;20198;-82
2023/05/25 00:17:13;;;;;;;0.70;0.70;;;;;;;;;;5078740;28;20246;-83
2023/05/25 00:19:41;;;;;;;0.60;0.60;;;;;;;;;;5078141;28;20205;-83
2023/05/25 00:22:07;;;;;;;0.57;0.57;;;;;;;;;;5078562;28;20194;-82
2023/05/25 00:24:33;;;;;;;0.50;0.50;;;;;;;;;;5078645;28;20178;-83
2023/05/25 00:27:00;;;;;;;0.70;0.70;;;;;;;;;;5082187;28;20190;-82
2023/05/25 00:29:26;;;;;;;0.50;0.50;;;;;;;;;;5080798;28;20198;-82
2023/05/25 00:31:52;;;;;;;0.70;0.70;;;;;;;;;;5078307;28;20305;-82
2023/05/25 00:34:18;;;;;;;0.47;0.47;;;;;;;;;;5078900;28;20625;-82
2023/05/25 00:36:47;;;;;;;0.50;0.50;;;;;;;;;;5079212;28;20266;-82
2023/05/25 00:39:14;;;;;;;0.50;0.50;;;;;;;;;;5078416;28;20178;-82
2023/05/25 00:41:43;;;;;;;0.60;0.60;;;;;;;;;;5078809;28;20183;-83
2023/05/25 00:44:09;;;;;;;0.60;0.60;;;;;;;;;;5078965;28;20201;-83
2023/05/25 00:46:35;;;;;;;0.60;0.60;;;;;;;;;;5079348;28;20178;-82
2023/05/25 00:49:01;;;;;;;0.57;0.57;;;;;;;;;;5094948;28;20181;-82
2023/05/25 00:51:28;;;;;;;0.50;0.50;;;;;;;;;;5096484;28;20214;-81
2023/05/25 00:53:54;;;;;;;0.60;0.60;;;;;;;;;;5095842;28;20289;-82
2023/05/25 00:56:29;;;;;;;0.60;0.60;;;;;;;;;;5084031;28;20179;-81
2023/05/25 00:58:57;;;;;;;0.40;0.40;;;;;;;;;;5075998;28;20644;-81
2023/05/25 01:01:25;;;;;;;0.60;0.60;;;;;;;;;;5075816;28;20202;-81
2023/05/25 01:03:52;;;;;;;0.50;0.50;;;;;;;;;;5077249;28;20182;-82
2023/05/25 01:06:19;;;;;;;0.50;0.50;;;;;;;;;;5077062;28;20179;-83
2023/05/25 01:08:49;;;;;;;0.60;0.60;;;;;;;;;;5076969;28;20178;-82
2023/05/25 01:11:16;;;;;;;0.50;0.50;;;;;;;;;;5076423;28;20930;-83
2023/05/25 01:13:43;;;;;;;0.50;0.50;;;;;;;;;;5077036;28;20645;-82
2023/05/25 01:16:09;;;;;;;0.50;0.50;;;;;;;;;;5076397;28;20185;-83
2023/05/25 01:18:36;;;;;;;0.53;0.53;;;;;;;;;;5077105;28;20637;-83
2023/05/25 01:21:11;;;;;;;0.60;0.60;;;;;;;;;;5076413;28;20531;-82
2023/05/25 01:23:39;;;;;;;0.50;0.50;;;;;;;;;;5076621;28;20241;-83
2023/05/25 01:26:07;;;;;;;0.60;0.60;;;;;;;;;;5077032;28;20217;-83
2023/05/25 01:28:39;;;;;;;0.60;0.60;;;;;;;;;;5077216;28;20284;-83
2023/05/25 01:31:06;;;;;;;0.60;0.60;;;;;;;;;;5100764;22;20222;-82
2023/05/25 01:33:32;;;;;;;0.50;0.50;;;;;;;;;;5116721;28;20189;-80
2023/05/25 01:35:59;;;;;;;0.60;0.60;;;;;;;;;;5117946;28;20260;-81
2023/05/25 01:38:25;;;;;;;0.50;0.50;;;;;;;;;;5116752;28;20184;-81
2023/05/25 01:40:51;;;;;;;0.50;0.50;;;;;;;;;;5116264;28;20202;-81
2023/05/25 01:43:17;;;;;;;0.50;0.50;;;;;;;;;;5116730;28;20189;-81
2023/05/25 01:45:43;;;;;;;0.50;0.50;;;;;;;;;;5116963;28;20166;-81
2023/05/25 01:48:09;;;;;;;0.50;0.50;;;;;;;;;;5103677;28;20243;-81
2023/05/25 01:50:46;;;;;;;0.50;0.50;;;;;;;;;;5094745;28;20284;-82
2023/05/25 01:53:16;;;;;;;0.40;0.40;;;;;;;;;;5094771;28;20264;-82
2023/05/25 01:55:45;;;;;;;0.60;0.60;;;;;;;;;;5094831;28;20186;-81
2023/05/25 01:58:14;;;;;;;0.67;0.67;;;;;;;;;;5095054;28;20287;-81
2023/05/25 02:00:41;;;;;;;0.50;0.50;;;;;;;;;;5093135;28;20220;-81
2023/05/25 02:03:08;;;;;;;0.47;0.47;;;;;;;;;;5095483;28;20174;-81
2023/05/25 02:05:35;;;;;;;0.60;0.60;;;;;;;;;;5094343;28;20182;-81
2023/05/25 02:08:01;;;;;;;0.70;0.70;;;;;;;;;;5094834;28;20185;-82
2023/05/25 02:10:27;;;;;;;0.60;0.60;;;;;;;;;;5094116;28;20209;-82
2023/05/25 02:12:53;;;;;;;0.50;0.50;;;;;;;;;;5094520;28;20188;-81
2023/05/25 02:15:19;;;;;;;0.57;0.57;;;;;;;;;;5094713;28;20191;-82
2023/05/25 02:17:45;;;;;;;0.50;0.50;;;;;;;;;;5094556;28;20177;-81
2023/05/25 02:20:11;;;;;;;0.50;0.50;;;;;;;;;;5093698;28;20285;-81
2023/05/25 02:22:37;;;;;;;0.50;0.50;;;;;;;;;;5094144;28;20174;-81
2023/05/25 02:25:03;;;;;;;0.50;0.50;;;;;;;;;;5094459;28;20188;-82
2023/05/25 02:27:29;;;;;;;0.50;0.50;;;;;;;;;;5094244;28;20165;-81
2023/05/25 02:29:55;;;;;;;0.60;0.60;;;;;;;;;;5094184;28;20274;-82
2023/05/25 02:32:21;;;;;;;0.40;0.40;;;;;;;;;;5094160;28;20667;-81
2023/05/25 02:34:47;;;;;;;0.50;0.50;;;;;;;;;;5094030;28;20173;-82
2023/05/25 02:37:13;;;;;;;0.50;0.50;;;;;;;;;;5094537;28;20213;-82
2023/05/25 02:39:39;;;;;;;0.50;0.50;;;;;;;;;;5093861;28;20656;-81
2023/05/25 02:42:05;;;;;;;0.50;0.50;;;;;;;;;;5094370;28;20170;-81
2023/05/25 02:44:31;;;;;;;0.50;0.50;;;;;;;;;;5094146;28;20540;-82
2023/05/25 02:46:57;;;;;;;0.40;0.40;;;;;;;;;;5094758;28;20182;-81
2023/05/25 02:49:23;;;;;;;0.50;0.50;;;;;;;;;;5096667;28;20184;-81
2023/05/25 02:51:49;;;;;;;0.60;0.60;;;;;;;;;;5094323;28;20248;-82
2023/05/25 02:54:16;;;;;;;0.60;0.60;;;;;;;;;;5094723;28;20654;-82
2023/05/25 02:56:42;;;;;;;0.50;0.50;;;;;;;;;;5095662;28;20185;-81
2023/05/25 02:59:07;;;;;;;0.60;0.60;;;;;;;;;;5095234;28;20185;-82
2023/05/25 03:01:34;;;;;;;0.60;0.60;;;;;;;;;;5094242;28;20284;-82
2023/05/25 03:04:00;;;;;;;0.60;0.60;;;;;;;;;;5097870;28;20177;-82
2023/05/25 03:06:26;;;;;;;0.50;0.50;;;;;;;;;;5098897;28;20173;-81
2023/05/25 03:08:52;;;;;;;0.43;0.43;;;;;;;;;;5099004;28;20178;-83
2023/05/25 03:11:18;;;;;;;0.60;0.60;;;;;;;;;;5097727;28;20213;-82
2023/05/25 03:13:44;;;;;;;0.50;0.50;;;;;;;;;;5103079;28;20173;-82
2023/05/25 03:16:11;;;;;;;0.50;0.50;;;;;;;;;;5122351;28;20158;-82
2023/05/25 03:18:37;;;;;;;0.50;0.50;;;;;;;;;;5122315;28;20169;-82
2023/05/25 03:21:03;;;;;;;0.53;0.53;;;;;;;;;;5120068;28;20201;-81
2023/05/25 03:23:29;;;;;;;0.50;0.50;;;;;;;;;;5116038;28;20170;-81
2023/05/25 03:25:55;;;;;;;0.60;0.60;;;;;;;;;;5100320;28;20201;-82
2023/05/25 03:28:21;;;;;;;0.67;0.67;;;;;;;;;;5097589;28;20178;-82
2023/05/25 03:30:47;;;;;;;0.60;0.60;;;;;;;;;;5097699;28;20562;-84
2023/05/25 03:33:13;;;;;;;0.47;0.47;;;;;;;;;;5098303;28;20190;-83
2023/05/25 03:35:39;;;;;;;0.57;0.57;;;;;;;;;;5099570;28;20192;-81
2023/05/25 03:38:05;;;;;;;0.70;0.70;;;;;;;;;;5111454;28;20193;-81
2023/05/25 03:40:31;;;;;;;0.50;0.50;;;;;;;;;;5113068;28;20228;-82
2023/05/25 03:42:57;;;;;;;0.50;0.50;;;;;;;;;;5107370;28;20558;-82
2023/05/25 03:45:23;;;;;;;0.60;0.60;;;;;;;;;;5096879;28;20192;-82
2023/05/25 03:47:49;;;;;;;0.50;0.50;;;;;;;;;;5096531;28;20188;-81
2023/05/25 03:50:15;;;;;;;0.60;0.60;;;;;;;;;;5096918;28;20305;-82
2023/05/25 03:52:41;;;;;;;0.50;0.50;;;;;;;;;;5097707;28;20273;-81
2023/05/25 03:55:07;;;;;;;0.63;0.63;;;;;;;;;;5120709;28;20194;-81
2023/05/25 03:57:33;;;;;;;0.60;0.60;;;;;;;;;;5120778;28;20169;-82
2023/05/25 03:59:59;;;;;;;0.40;0.40;;;;;;;;;;5120359;28;20206;-80
2023/05/25 04:02:25;;;;;;;0.50;0.50;;;;;;;;;;5120349;28;20197;-82
2023/05/25 04:04:52;;;;;;;0.70;0.70;;;;;;;;;;5120515;28;20185;-81
2023/05/25 04:07:19;;;;;;;0.50;0.50;;;;;;;;;;5111799;28;20207;-81
2023/05/25 04:09:45;;;;;;;0.67;0.67;;;;;;;;;;5110593;28;20204;-81
2023/05/25 04:12:11;;;;;;;0.57;0.57;;;;;;;;;;5110061;28;20286;-82
2023/05/25 04:14:37;;;;;;;0.60;0.60;;;;;;;;;;5108748;28;20596;-80
2023/05/25 04:17:03;;;;;;;0.60;0.60;;;;;;;;;;5103918;28;20221;-82
2023/05/25 04:19:29;;;;;;;0.50;0.50;;;;;;;;;;5098094;28;20253;-80
2023/05/25 04:21:55;;;;;;;0.53;0.53;;;;;;;;;;5097915;28;20848;-82
2023/05/25 04:24:21;;;;;;;0.60;0.60;;;;;;;;;;5098116;28;20266;-82
2023/05/25 04:26:48;;;;;;;0.50;0.50;;;;;;;;;;5098270;28;20181;-82
2023/05/25 04:29:14;;;;;;;0.60;0.60;;;;;;;;;;5097332;28;20177;-82
2023/05/25 04:31:42;;;;;;;0.70;0.70;;;;;;;;;;5098092;28;20707;-83
2023/05/25 04:34:09;;;;;;;0.50;0.50;;;;;;;;;;5098096;28;20283;-83
2023/05/25 04:36:37;;;;;;;0.70;0.70;;;;;;;;;;5097205;28;20188;-82
2023/05/25 04:39:03;;;;;;;0.47;0.47;;;;;;;;;;5097762;28;20227;-82
2023/05/25 04:41:29;;;;;;;0.43;0.43;;;;;;;;;;5097182;28;20204;-83
2023/05/25 04:43:56;;;;;;;0.50;0.50;;;;;;;;;;5097451;28;20205;-83
2023/05/25 04:46:22;;;;;;;0.50;0.50;;;;;;;;;;5097540;28;20543;-82
2023/05/25 04:48:49;;;;;;;0.40;0.40;;;;;;;;;;5097575;28;20659;-83
2023/05/25 04:51:15;;;;;;;0.60;0.60;;;;;;;;;;5096857;28;20702;-82
2023/05/25 04:53:41;;;;;;;0.50;0.50;;;;;;;;;;5097471;28;20181;-81
2023/05/25 04:56:07;;;;;;;0.40;0.40;;;;;;;;;;5097409;28;20178;-83
2023/05/25 04:58:33;;;;;;;0.47;0.47;;;;;;;;;;5097343;28;20178;-82
2023/05/25 05:00:59;;;;;;;0.40;0.40;;;;;;;;;;5089586;28;20216;-82
2023/05/25 05:03:25;;;;;;;0.50;0.50;;;;;;;;;;5090974;28;20226;-83
2023/05/25 05:05:51;;;;;;;0.47;0.47;;;;;;;;;;5097054;28;20170;-82
2023/05/25 05:08:17;;;;;;;0.50;0.50;;;;;;;;;;5097104;28;20287;-82
2023/05/25 05:10:43;;;;;;;0.50;0.50;;;;;;;;;;5097340;28;20220;-83
2023/05/25 05:13:10;;;;;;;0.40;0.40;;;;;;;;;;5098099;28;20261;-83
2023/05/25 05:15:36;;;;;;;0.50;0.50;;;;;;;;;;5098108;28;20654;-82
2023/05/25 05:18:02;;;;;;;0.50;0.50;;;;;;;;;;5097636;28;20255;-83
2023/05/25 05:20:28;;;;;;;0.40;0.40;;;;;;;;;;5097867;28;20257;-83
2023/05/25 05:22:54;;;;;;;0.50;0.50;;;;;;;;;;5099310;28;20178;-82
2023/05/25 05:25:20;;;;;;;0.50;0.50;;;;;;;;;;5097515;28;20173;-83
2023/05/25 05:27:46;;;;;;;0.53;0.53;;;;;;;;;;5096905;28;20176;-83
2023/05/25 05:30:12;;;;;;;0.60;0.60;;;;;;;;;;5097462;28;20210;-84
2023/05/25 05:32:38;;;;;;;0.50;0.50;;;;;;;;;;5098716;28;20261;-85
2023/05/25 05:35:04;;;;;;;0.50;0.50;;;;;;;;;;5078787;28;20201;-81
2023/05/25 05:37:30;;;;;;;0.50;0.50;;;;;;;;;;5076515;28;20678;-84
2023/05/25 05:39:56;;;;;;;0.50;0.50;;;;;;;;;;5076114;28;20224;-84
2023/05/25 05:42:22;;;;;;;0.60;0.60;;;;;;;;;;5076389;28;20495;-82
2023/05/25 05:44:48;;;;;;;0.47;0.47;;;;;;;;;;5074926;28;20179;-82
2023/05/25 05:47:14;;;;;;;0.50;0.50;;;;;;;;;;5075834;28;20232;-82
2023/05/25 05:49:40;;;;;;;0.57;0.57;;;;;;;;;;5075651;28;20194;-86
2023/05/25 05:52:09;;;;;;;0.53;0.53;;;;;;;;;;5076839;28;20216;-82
2023/05/25 05:54:35;;;;;;;0.57;0.57;;;;;;;;;;5076431;28;20229;-83
2023/05/25 05:57:02;;;;;;;0.60;0.60;;;;;;;;;;5076830;28;20186;-83
2023/05/25 05:59:28;;;;;;;0.50;0.50;;;;;;;;;;5075778;28;20256;-82
2023/05/25 06:01:54;;;;;;;0.43;0.43;;;;;;;;;;5075657;28;20186;-83
2023/05/25 06:04:22;;;;;;;0.50;0.50;;;;;;;;;;5076646;28;20171;-80
2023/05/25 06:06:48;;;;;;;0.60;0.60;;;;;;;;;;5077066;28;20178;-85
2023/05/25 06:09:13;;;;;;;0.50;0.50;;;;;;;;;;5075891;28;20201;-82
2023/05/25 06:11:40;;;;;;;0.50;0.50;;;;;;;;;;5076253;28;20207;-84
2023/05/25 06:14:06;;;;;;;0.50;0.50;;;;;;;;;;5076952;28;20174;-83
2023/05/25 06:16:32;;;;;;;0.50;0.50;;;;;;;;;;5077881;28;20174;-81
2023/05/25 06:18:58;;;;;;;0.50;0.50;;;;;;;;;;5078232;28;20207;-84
2023/05/25 06:21:24;;;;;;;0.50;0.50;;;;;;;;;;5077590;28;20225;-84
2023/05/25 06:23:50;;;;;;;0.40;0.40;;;;;;;;;;5085068;28;20183;-84
2023/05/25 06:26:16;;;;;;;0.30;0.30;;;;;;;;;;5089407;28;20178;-84
2023/05/25 06:28:42;;;;;;;0.50;0.50;;;;;;;;;;5097265;28;20260;-83
2023/05/25 06:31:08;;;;;;;0.60;0.60;;;;;;;;;;5086154;28;20264;-84
2023/05/25 06:33:34;;;;;;;0.60;0.60;;;;;;;;;;5094428;28;20253;-83
2023/05/25 06:36:00;;;;;;;0.50;0.50;;;;;;;;;;5096662;28;20180;-82
2023/05/25 06:38:27;;;;;;;0.40;0.40;;;;;;;;;;5095688;28;20223;-82
2023/05/25 06:40:53;;;;;;;0.43;0.43;;;;;;;;;;5096837;28;20197;-85
2023/05/25 06:43:19;;;;;;;0.50;0.50;;;;;;;;;;5096808;28;20166;-83
2023/05/25 06:45:45;;;;;;;0.50;0.50;;;;;;;;;;5095565;28;20178;-84
2023/05/25 06:48:11;;;;;;;0.60;0.60;;;;;;;;;;5095143;28;20174;-83
2023/05/25 06:50:38;;;;;;;0.50;0.50;;;;;;;;;;5096549;28;20237;-82
2023/05/25 06:53:05;;;;;;;0.40;0.40;;;;;;;;;;5095731;28;20227;-83
2023/05/25 06:55:31;;;;;;;0.50;0.50;;;;;;;;;;5095321;28;20200;-81
2023/05/25 06:57:57;;;;;;;0.50;0.50;;;;;;;;;;5094788;28;20170;-82
2023/05/25 07:00:24;;;;;;;0.40;0.40;;;;;;;;;;5093745;28;20186;-82
2023/05/25 07:02:50;;;;;;;0.50;0.50;;;;;;;;;;5093469;28;20186;-83
2023/05/25 07:05:16;;;;;;;0.60;0.60;;;;;;;;;;5092048;28;20229;-85
2023/05/25 07:07:42;;;;;;;0.40;0.40;;;;;;;;;;5093746;28;20683;-83
2023/05/25 07:10:08;;;;;;;0.40;0.40;;;;;;;;;;5094125;28;20200;-81
2023/05/25 07:12:34;;;;;;;0.50;0.50;;;;;;;;;;5078696;28;20312;-84
2023/05/25 07:15:00;;;;;;;0.30;0.30;;;;;;;;;;5074334;28;20187;-82
2023/05/25 07:17:27;;;;;;;0.40;0.40;;;;;;;;;;5074280;28;20231;-85
2023/05/25 07:19:53;;;;;;;0.40;0.40;;;;;;;;;;5074851;28;20252;-87
2023/05/25 07:22:20;;;;;;;0.40;0.40;;;;;;;;;;5073813;28;20212;-84
2023/05/25 07:24:46;;;;;;;0.30;0.30;;;;;;;;;;5074237;28;20173;-84
2023/05/25 07:27:12;;;;;;;0.40;0.40;;;;;;;;;;5077466;28;21122;-82
2023/05/25 07:29:38;;;;;;;0.60;0.60;;;;;;;;;;5081740;28;20669;-83
2023/05/25 07:32:05;;;;;;;0.53;0.53;;;;;;;;;;5075181;28;20213;-84
2023/05/25 07:34:31;;;;;;;0.50;0.50;;;;;;;;;;5083583;28;20170;-82
2023/05/25 07:36:57;;;;;;;0.60;0.60;;;;;;;;;;5083333;28;20273;-83
2023/05/25 07:39:23;;;;;;;0.50;0.50;;;;;;;;;;5081908;28;20260;-81
2023/05/25 07:41:49;;;;;;;0.53;0.53;;;;;;;;;;5083710;28;20174;-83
2023/05/25 07:44:15;;;;;;;0.50;0.50;;;;;;;;;;5084011;28;20178;-83
2023/05/25 07:46:42;;;;;;;0.50;0.50;;;;;;;;;;5084728;28;20331;-82
2023/05/25 07:49:14;;;;;;;0.40;0.40;;;;;;;;;;5094304;28;20307;-83
2023/05/25 07:51:40;;;;;;;0.60;0.60;;;;;;;;;;5097317;28;20270;-83
2023/05/25 07:54:06;;;;;;;0.33;0.33;;;;;;;;;;5106873;28;20178;-82
2023/05/25 07:56:32;;;;;;;0.30;0.30;;;;;;;;;;5111624;28;20174;-84
2023/05/25 07:58:59;;;;;;;0.30;0.30;;;;;;;;;;5106639;28;20216;-83
2023/05/25 08:01:25;;;;;;;0.40;0.40;;;;;;;;;;5096735;28;20193;-84
2023/05/25 08:03:51;;;;;;;0.40;0.40;;;;;;;;;;5096773;28;20186;-81
2023/05/25 08:06:18;;;;;;;0.43;0.43;;;;;;;;;;5096350;28;20181;-82
2023/05/25 08:08:44;;;;;;;0.50;0.50;;;;;;;;;;5092307;28;20283;-82
2023/05/25 08:11:10;;;;;;;0.50;0.50;;;;;;;;;;5083963;28;20224;-82
2023/05/25 08:13:36;;;;;;;0.40;0.40;;;;;;;;;;5085775;28;20163;-82
2023/05/25 08:16:02;;;;;;;0.40;0.40;;;;;;;;;;5089189;28;20180;-82
2023/05/25 08:18:30;;;;;;;0.40;0.40;;;;;;;;;;5078967;28;20257;-83
2023/05/25 08:20:56;;;;;;;0.30;0.30;;;;;;;;;;5083406;28;20206;-81
2023/05/25 08:23:22;;;;;;;0.30;0.30;;;;;;;;;;5083746;28;20185;-81
2023/05/25 08:25:48;;;;;;;0.40;0.40;;;;;;;;;;5090226;28;20269;-80
2023/05/25 08:28:14;;;;;;;0.30;0.30;;;;;;;;;;5088918;28;20194;-81
2023/05/25 08:30:40;;;;;;;0.40;0.40;;;;;;;;;;5090678;28;20218;-82
2023/05/25 08:33:06;;;;;;;0.33;0.33;;;;;;;;;;5088629;28;20187;-82
2023/05/25 08:35:32;;;;;;;0.40;0.40;;;;;;;;;;5085729;28;20166;-82
2023/05/25 08:37:58;;;;;;;0.30;0.30;;;;;;;;;;5088570;28;20192;-82
2023/05/25 08:40:29;;;;;;;0.30;0.30;;;;;;;;;;5095217;28;20218;-81
2023/05/25 08:42:55;;;;;;;0.30;0.30;;;;;;;;;;5091257;28;20195;-81
2023/05/25 08:45:21;;;;;;;0.33;0.33;;;;;;;;;;5083898;28;20237;-82
2023/05/25 08:47:48;;;;;;;0.40;0.40;;;;;;;;;;5083575;28;20214;-81
2023/05/25 08:50:14;;;;;;;0.30;0.30;;;;;;;;;;5088748;28;20614;-81
2023/05/25 08:52:44;;;;;;;0.37;0.37;;;;;;;;;;5079264;28;20167;-82
2023/05/25 08:55:10;;;;;;;0.33;0.33;;;;;;;;;;5088586;28;20220;-83
2023/05/25 08:57:43;;;;;;;0.40;0.40;;;;;;;;;;5084755;28;20183;-81
2023/05/25 09:00:10;;;;;;;0.30;0.30;;;;;;;;;;5079852;28;20251;-83
2023/05/25 09:02:55;;;;;;;0.40;0.40;;;;;;;;;;5092062;28;20182;-81
2023/05/25 09:05:23;;;;;;;0.30;0.30;;;;;;;;;;5085153;28;20644;-82
2023/05/25 09:07:50;;;;;;;0.50;0.50;;;;;;;;;;5085488;28;20308;-82
2023/05/25 09:10:17;;;;;;;0.40;0.40;;;;;;;;;;5092106;28;20197;-82
2023/05/25 09:12:43;;;;;;;0.33;0.33;;;;;;;;;;5079355;28;20170;-81
2023/05/25 09:15:12;;;;;;;0.40;0.40;;;;;;;;;;5089088;28;20261;-80
2023/05/25 09:17:38;;;;;;;0.40;0.40;;;;;;;;;;5093331;28;20182;-80
2023/05/25 09:20:05;;;;;;;0.40;0.40;;;;;;;;;;5088234;28;20186;-81
2023/05/25 09:22:30;;;;;;;0.30;0.30;;;;;;;;;;5089220;28;20181;-81
2023/05/25 09:24:56;;;;;;;0.30;0.30;;;;;;;;;;5080602;28;20170;-80
2023/05/25 09:27:23;;;;;;;0.40;0.40;;;;;;;;;;5088312;28;20171;-78
2023/05/25 09:29:49;;;;;;;0.30;0.30;;;;;;;;;;5096059;28;20200;-82
2023/05/25 09:32:19;;;;;;;0.40;0.40;;;;;;;;;;5095314;28;20256;-82
2023/05/25 09:34:45;;;;;;;0.30;0.30;;;;;;;;;;5108203;28;20167;-82
2023/05/25 09:37:12;;;;;;;0.30;0.30;;;;;;;;;;5097754;28;20225;-82
2023/05/25 09:39:40;;;;;;;0.40;0.40;;;;;;;;;;5111581;28;20343;-83
2023/05/25 09:42:06;;;;;;;0.40;0.40;;;;;;;;;;5097504;28;20174;-83
2023/05/25 09:44:32;;;;;;;0.30;0.30;;;;;;;;;;5094953;28;20265;-81
2023/05/25 09:46:58;;;;;;;0.30;0.30;;;;;;;;;;5079553;28;20177;-83
2023/05/25 09:49:24;;;;;;;0.40;0.40;;;;;;;;;;5085718;28;20174;-83
2023/05/25 09:51:50;;;;;;;0.50;0.50;;;;;;;;;;5086514;28;20237;-81
2023/05/25 09:54:16;;;;;;;0.30;0.30;;;;;;;;;;5095041;28;20185;-81
2023/05/25 09:56:42;;;;;;;0.40;0.40;;;;;;;;;;5086278;28;20528;-83
2023/05/25 09:59:08;;;;;;;0.30;0.30;;;;;;;;;;5095169;28;20196;-83
2023/05/25 10:01:35;;;;;;;0.40;0.40;;;;;;;;;;5095471;28;20246;-81
2023/05/25 10:04:01;;;;;;;0.30;0.30;;;;;;;;;;5087157;28;20182;-83
2023/05/25 10:06:27;;;;;;;0.50;0.50;;;;;;;;;;5097348;28;20257;-83
2023/05/25 10:08:56;;;;;;;0.40;0.40;;;;;;;;;;5090809;28;20186;-83
2023/05/25 10:11:23;;;;;;;0.30;0.30;;;;;;;;;;5082189;28;20327;-82
2023/05/25 10:13:50;;;;;;;0.50;0.50;;;;;;;;;;5094446;28;20641;-82
2023/05/25 10:16:17;;;;;;;0.40;0.40;;;;;;;;;;5078815;28;20174;-82
2023/05/25 10:18:54;;;;;;;0.40;0.40;;;;;;;;;;5090768;28;20182;-82
2023/05/25 10:21:21;;;;;;;0.40;0.40;;;;;;;;;;5082512;28;20185;-82
2023/05/25 10:23:50;;;;;;;0.40;0.40;;;;;;;;;;5082402;28;20261;-82
2023/05/25 10:26:21;;;;;;;0.30;0.30;;;;;;;;;;5090356;28;20178;-82
2023/05/25 10:28:50;;;;;;;0.30;0.30;;;;;;;;;;5077244;28;20253;-83
2023/05/25 10:31:16;;;;;;;0.37;0.37;;;;;;;;;;5087652;28;20743;-83
2023/05/25 10:33:43;;;;;;;0.50;0.50;;;;;;;;;;5072936;28;20225;-82
2023/05/25 10:36:12;;;;;;;0.30;0.30;;;;;;;;;;5088260;28;20628;-83
2023/05/25 10:38:39;;;;;;;0.33;0.33;;;;;;;;;;5076990;28;20177;-81
2023/05/25 10:41:05;;;;;;;0.30;0.30;;;;;;;;;;5087660;28;20194;-82
2023/05/25 10:43:31;;;;;;;0.30;0.30;;;;;;;;;;5083912;28;20169;-82
2023/05/25 10:45:57;;;;;;;0.60;0.60;;;;;;;;;;5094016;28;20678;-81
2023/05/25 10:48:24;;;;;;;0.40;0.40;;;;;;;;;;5076595;28;20175;-82
2023/05/25 10:50:50;;;;;;;0.40;0.40;;;;;;;;;;5076924;28;20201;-84
2023/05/25 10:53:17;;;;;;;0.30;0.30;;;;;;;;;;5093628;28;20252;-82
2023/05/25 10:55:43;;;;;;;0.30;0.30;;;;;;;;;;5082591;28;20182;-81
2023/05/25 10:58:11;;;;;;;0.30;0.30;;;;;;;;;;5088099;28;20178;-82
2023/05/25 11:00:37;;;;;;;0.30;0.30;;;;;;;;;;5091069;28;20704;-82
2023/05/25 11:03:03;;;;;;;0.40;0.40;;;;;;;;;;5078562;28;20200;-84
2023/05/25 11:05:31;;;;;;;0.30;0.30;;;;;;;;;;5090238;28;20182;-83
2023/05/25 11:07:57;;;;;;;0.50;0.50;;;;;;;;;;5080271;28;20178;-82
2023/05/25 11:10:42;;;;;;;0.30;0.30;;;;;;;;;;5089114;28;20681;-82
2023/05/25 11:13:23;;;;;;;0.30;0.30;;;;;;;;;;5072848;28;20162;-83
2023/05/25 11:16:08;;;;;;;0.30;0.30;;;;;;;;;;5073821;28;20182;-81
2023/05/25 11:18:37;;;;;;;0.30;0.30;;;;;;;;;;5075199;28;20181;-82
2023/05/25 11:21:13;;;;;;;0.30;0.30;;;;;;;;;;5074790;28;20289;-88
2023/05/25 11:23:52;;;;;;;0.40;0.40;;;;;;;;;;5076272;28;20583;-82
2023/05/25 11:26:21;;;;;;;0.40;0.40;;;;;;;;;;5081040;28;20182;-83
2023/05/25 11:28:47;;;;;;;0.33;0.33;;;;;;;;;;5081310;28;20170;-81
2023/05/25 11:31:14;;;;;;;0.47;0.47;;;;;;;;;;5079354;28;20291;-82
2023/05/25 11:33:43;;;;;;;0.30;0.30;;;;;;;;;;5086088;28;20178;-83
2023/05/25 11:36:14;;;;;;;0.30;0.30;;;;;;;;;;5085929;28;20253;-82
2023/05/25 11:38:44;;;;;;;0.30;0.30;;;;;;;;;;5079727;28;20201;-82
2023/05/25 11:41:22;;;;;;;0.40;0.40;;;;;;;;;;5081143;28;20190;-83
2023/05/25 11:43:49;;;;;;;0.30;0.30;;;;;;;;;;5079772;28;20174;-84
2023/05/25 11:46:19;;;;;;;0.40;0.40;;;;;;;;;;5080597;28;20179;-82
2023/05/25 11:48:50;;;;;;;0.40;0.40;;;;;;;;;;5080546;28;20178;-83
2023/05/25 11:51:16;;;;;;;0.20;0.20;;;;;;;;;;5078192;28;20696;-82
2023/05/25 11:53:43;;;;;;;0.20;0.20;;;;;;;;;;5088004;28;20184;-83
2023/05/25 11:56:09;;;;;;;0.30;0.30;;;;;;;;;;5099620;28;20173;-83
2023/05/25 11:58:35;;;;;;;0.20;0.20;;;;;;;;;;5099726;28;20198;-83
2023/05/25 12:01:13;;;;;;;0.30;0.30;;;;;;;;;;5104156;28;20186;-82
2023/05/25 12:03:39;;;;;;;0.30;0.30;;;;;;;;;;5102630;28;20250;-82
2023/05/25 12:06:05;;;;;;;0.40;0.40;;;;;;;;;;5101426;28;20576;-83
2023/05/25 12:08:34;;;;;;;0.40;0.40;;;;;;;;;;5105345;28;20181;-82
2023/05/25 12:11:01;;;;;;;0.33;0.33;;;;;;;;;;5100690;28;20205;-81
2023/05/25 12:13:26;;;;;;;0.30;0.30;;;;;;;;;;5096742;28;20205;-82
2023/05/25 12:15:59;;;;;;;0.30;0.30;;;;;;;;;;5090331;28;20586;-82
2023/05/25 12:18:27;;;;;;;0.30;0.30;;;;;;;;;;5091027;28;20171;-83
2023/05/25 12:20:53;;;;;;;0.30;0.30;;;;;;;;;;5089502;28;20194;-84
2023/05/25 12:23:20;;;;;;;0.40;0.40;;;;;;;;;;5087749;28;20577;-80
2023/05/25 12:25:46;;;;;;;0.33;0.33;;;;;;;;;;5088897;28;20322;-83
2023/05/25 12:28:13;;;;;;;0.33;0.33;;;;;;;;;;5090794;28;20244;-83
2023/05/25 12:30:40;;;;;;;0.30;0.30;;;;;;;;;;5090698;28;20731;-82
2023/05/25 12:33:06;;;;;;;0.30;0.30;;;;;;;;;;5089733;28;20221;-82
2023/05/25 12:35:46;;;;;;;0.30;0.30;;;;;;;;;;5094206;28;20773;-82
2023/05/25 12:38:12;;;;;;;0.20;0.20;;;;;;;;;;5100511;28;20525;-84
2023/05/25 12:40:38;;;;;;;0.40;0.40;;;;;;;;;;5100637;28;20285;-82
2023/05/25 12:43:04;;;;;;;0.30;0.30;;;;;;;;;;5100146;28;20241;-83
2023/05/25 12:45:30;;;;;;;0.30;0.30;;;;;;;;;;5102343;28;20182;-81
2023/05/25 12:47:56;;;;;;;0.40;0.40;;;;;;;;;;5100826;28;20182;-82
2023/05/25 12:50:22;;;;;;;0.50;0.50;;;;;;;;;;5101352;28;20194;-83
2023/05/25 12:52:48;;;;;;;0.30;0.30;;;;;;;;;;5102562;28;20563;-83
2023/05/25 12:55:34;;;;;;;0.47;0.47;;;;;;;;;;5101752;28;20586;-83
2023/05/25 12:58:01;;;;;;;0.40;0.40;;;;;;;;;;5099108;28;20186;-81
2023/05/25 13:00:31;;;;;;;0.33;0.33;;;;;;;;;;5096371;28;20193;-83
2023/05/25 13:02:57;;;;;;;0.33;0.33;;;;;;;;;;5099572;28;20554;-83
2023/05/25 13:05:25;;;;;;;0.40;0.40;;;;;;;;;;5099848;28;20162;-83
2023/05/25 13:07:51;;;;;;;0.30;0.30;;;;;;;;;;5099035;28;20645;-83
2023/05/25 13:10:17;;;;;;;0.40;0.40;;;;;;;;;;5098054;28;20198;-83
2023/05/25 13:12:44;;;;;;;0.30;0.30;;;;;;;;;;5098894;28;20181;-83
2023/05/25 13:15:10;;;;;;;0.30;0.30;;;;;;;;;;5098784;28;20249;-82
2023/05/25 13:17:36;;;;;;;0.30;0.30;;;;;;;;;;5097990;28;20188;-82
2023/05/25 13:20:03;;;;;;;0.30;0.30;;;;;;;;;;5098955;28;20217;-85
2023/05/25 13:22:29;;;;;;;0.30;0.30;;;;;;;;;;5100117;28;20181;-83
2023/05/25 13:24:55;;;;;;;0.27;0.27;;;;;;;;;;5100042;28;20192;-82
2023/05/25 13:27:22;;;;;;;0.40;0.40;;;;;;;;;;5099974;28;20192;-82
2023/05/25 13:29:48;;;;;;;0.30;0.30;;;;;;;;;;5102138;28;20703;-83
2023/05/25 13:32:14;;;;;;;0.40;0.40;;;;;;;;;;5103900;28;20213;-81
2023/05/25 13:34:40;;;;;;;0.30;0.30;;;;;;;;;;5101282;28;20235;-80
2023/05/25 13:37:06;;;;;;;0.40;0.40;;;;;;;;;;5102487;28;20559;-82
2023/05/25 13:39:31;;;;;;;0.30;0.30;;;;;;;;;;5100401;28;20193;-83
2023/05/25 13:41:58;;;;;;;0.40;0.40;;;;;;;;;;5099680;28;20181;-80
2023/05/25 13:44:24;;;;;;;0.30;0.30;;;;;;;;;;5100824;28;20174;-81
2023/05/25 13:46:50;;;;;;;0.40;0.40;;;;;;;;;;5101281;28;20189;-83
2023/05/25 13:49:18;;;;;;;0.50;0.50;;;;;;;;;;5093756;28;20183;-82
2023/05/25 13:51:44;;;;;;;0.47;0.47;;;;;;;;;;5110799;28;20205;-82
2023/05/25 13:54:11;;;;;;;0.30;0.30;;;;;;;;;;5099148;28;20251;-81
2023/05/25 13:56:37;;;;;;;0.37;0.37;;;;;;;;;;5100245;28;20188;-82
2023/05/25 13:59:03;;;;;;;0.37;0.37;;;;;;;;;;5080392;28;20253;-81
2023/05/25 14:01:31;;;;;;;0.40;0.40;;;;;;;;;;5081726;28;20187;-81
2023/05/25 14:03:58;;;;;;;0.30;0.30;;;;;;;;;;5109517;28;20173;-83
2023/05/25 14:06:24;;;;;;;0.47;0.47;;;;;;;;;;5099803;28;20194;-84
2023/05/25 14:08:50;;;;;;;0.30;0.30;;;;;;;;;;5108077;28;20209;-83
2023/05/25 14:11:16;;;;;;;0.40;0.40;;;;;;;;;;5115332;28;20220;-81
2023/05/25 14:13:42;;;;;;;0.30;0.30;;;;;;;;;;5112509;28;20245;-82
2023/05/25 14:16:08;;;;;;;0.30;0.30;;;;;;;;;;5113324;28;20211;-82
2023/05/25 14:18:34;;;;;;;0.30;0.30;;;;;;;;;;5111153;28;20170;-83
2023/05/25 14:21:00;;;;;;;0.30;0.30;;;;;;;;;;5111024;28;20200;-82
2023/05/25 14:23:26;;;;;;;0.40;0.40;;;;;;;;;;5108015;28;20189;-83
2023/05/25 14:25:52;;;;;;;0.37;0.37;;;;;;;;;;5102021;28;20184;-84
2023/05/25 14:28:18;;;;;;;0.40;0.40;;;;;;;;;;5100456;28;20199;-84
2023/05/25 14:30:44;;;;;;;0.30;0.30;;;;;;;;;;5100440;28;20229;-87
2023/05/25 14:33:14;;;;;;;0.30;0.30;;;;;;;;;;5101494;28;20304;-85
2023/05/25 14:35:43;;;;;;;0.30;0.30;;;;;;;;;;5103221;28;20211;-86
2023/05/25 14:38:10;;;;;;;0.40;0.40;;;;;;;;;;5101585;28;20570;-84
2023/05/25 14:40:36;;;;;;;0.40;0.40;;;;;;;;;;5099928;28;20194;-87